sensor_id;sensor_type;location;lat;lon;timestamp;pressure;altitude;pressure_sealevel;temperature;humidity
55456;BME280;63021;52.836;6.376;2023-07-20T00:01:39;101498.16;;;16.16;69.72
55456;BME280;63021;52.836;6.376;2023-07-20T00:04:10;101500.00;;;16.16;69.70
55456;BME280;63021;52.836;6.376;2023-07-20T00:06:35;101497.31;;;16.16;70.55
55456;BME280;63021;52.836;6.376;2023-07-20T00:09:01;101497.47;;;16.14;70.16
55456;BME280;63021;52.836;6.376;2023-07-20T00:11:27;101490.59;;;16.11;69.43
55456;BME280;63021;52.836;6.376;2023-07-20T00:13:53;101490.75;;;16.10;70.12
55456;BME280;63021;52.836;6.376;2023-07-20T00:16:18;101497.81;;;16.11;70.03
55456;BME280;63021;52.836;6.376;2023-07-20T00:18:44;101488.25;;;16.08;70.22
55456;BME280;63021;52.836;6.376;2023-07-20T00:21:09;101484.91;;;16.06;69.85
55456;BME280;63021;52.836;6.376;2023-07-20T00:23:34;101480.53;;;16.05;70.21
55456;BME280;63021;52.836;6.376;2023-07-20T00:26:00;101481.19;;;16.07;70.04
55456;BME280;63021;52.836;6.376;2023-07-20T00:28:25;101479.53;;;16.06;70.04
55456;BME280;63021;52.836;6.376;2023-07-20T00:30:51;101476.84;;;16.06;70.69
55456;BME280;63021;52.836;6.376;2023-07-20T00:33:17;101479.53;;;16.06;70.09
55456;BME280;63021;52.836;6.376;2023-07-20T00:35:43;101480.69;;;16.04;69.62
55456;BME280;63021;52.836;6.376;2023-07-20T00:38:09;101480.69;;;16.04;69.98
55456;BME280;63021;52.836;6.376;2023-07-20T00:40:38;101481.53;;;16.04;70.27
55456;BME280;63021;52.836;6.376;2023-07-20T00:43:04;101477.31;;;16.02;70.07
55456;BME280;63021;52.836;6.376;2023-07-20T00:45:30;101474.81;;;16.00;70.23
55456;BME280;63021;52.836;6.376;2023-07-20T00:47:57;101476.66;;;16.00;70.65
55456;BME280;63021;52.836;6.376;2023-07-20T00:50:24;101473.16;;;15.99;70.57
55456;BME280;63021;52.836;6.376;2023-07-20T00:52:49;101488.41;;;15.99;70.87
55456;BME280;63021;52.836;6.376;2023-07-20T00:55:15;101481.53;;;15.96;70.77
55456;BME280;63021;52.836;6.376;2023-07-20T00:57:41;101480.53;;;15.89;70.47
55456;BME280;63021;52.836;6.376;2023-07-20T01:00:07;101484.88;;;15.90;70.61
55456;BME280;63021;52.836;6.376;2023-07-20T01:02:33;101481.53;;;15.88;70.30
55456;BME280;63021;52.836;6.376;2023-07-20T01:04:58;101493.44;;;15.85;70.74
55456;BME280;63021;52.836;6.376;2023-07-20T01:07:28;101493.75;;;15.82;71.08
55456;BME280;63021;52.836;6.376;2023-07-20T01:10:12;101502.00;;;15.81;70.49
55456;BME280;63021;52.836;6.376;2023-07-20T01:12:46;101498.91;;;15.75;70.82
55456;BME280;63021;52.836;6.376;2023-07-20T01:15:12;101496.56;;;15.72;70.52
55456;BME280;63021;52.836;6.376;2023-07-20T01:17:39;101496.06;;;15.69;70.40
55456;BME280;63021;52.836;6.376;2023-07-20T01:20:06;101505.28;;;15.66;70.39
55456;BME280;63021;52.836;6.376;2023-07-20T01:31:20;101496.00;;;15.52;70.72
55456;BME280;63021;52.836;6.376;2023-07-20T01:33:47;101496.69;;;15.46;70.79
55456;BME280;63021;52.836;6.376;2023-07-20T01:36:14;101489.78;;;15.44;71.46
55456;BME280;63021;52.836;6.376;2023-07-20T01:38:42;101496.47;;;15.39;70.90
55456;BME280;63021;52.836;6.376;2023-07-20T01:41:08;101488.59;;;15.38;71.04
55456;BME280;63021;52.836;6.376;2023-07-20T01:43:34;101486.41;;;15.33;70.36
55456;BME280;63021;52.836;6.376;2023-07-20T01:45:59;101493.09;;;15.29;70.83
55456;BME280;63021;52.836;6.376;2023-07-20T01:48:24;101490.75;;;15.26;70.96
55456;BME280;63021;52.836;6.376;2023-07-20T01:50:50;101489.53;;;15.20;70.56
55456;BME280;63021;52.836;6.376;2023-07-20T01:53:15;101500.59;;;15.17;70.83
55456;BME280;63021;52.836;6.376;2023-07-20T01:55:43;101491.19;;;15.13;71.30
55456;BME280;63021;52.836;6.376;2023-07-20T01:58:09;101495.84;;;15.11;70.92
55456;BME280;63021;52.836;6.376;2023-07-20T02:00:36;101491.00;;;15.06;70.99
55456;BME280;63021;52.836;6.376;2023-07-20T02:03:02;101498.53;;;15.03;71.29
55456;BME280;63021;52.836;6.376;2023-07-20T02:05:27;101498.00;;;14.99;71.53
55456;BME280;63021;52.836;6.376;2023-07-20T02:07:53;101496.44;;;14.88;71.26
55456;BME280;63021;52.836;6.376;2023-07-20T02:10:18;101487.03;;;14.84;71.29
55456;BME280;63021;52.836;6.376;2023-07-20T02:12:43;101499.06;;;14.80;71.53
55456;BME280;63021;52.836;6.376;2023-07-20T02:15:09;101501.91;;;14.79;71.04
55456;BME280;63021;52.836;6.376;2023-07-20T02:17:35;101483.31;;;14.77;71.27
55456;BME280;63021;52.836;6.376;2023-07-20T02:20:00;101502.22;;;14.76;71.45
55456;BME280;63021;52.836;6.376;2023-07-20T02:22:26;101491.97;;;14.71;71.57
55456;BME280;63021;52.836;6.376;2023-07-20T02:24:51;101507.38;;;14.69;71.16
55456;BME280;63021;52.836;6.376;2023-07-20T02:27:16;101493.47;;;14.65;71.59
55456;BME280;63021;52.836;6.376;2023-07-20T02:29:42;101487.41;;;14.63;71.40
55456;BME280;63021;52.836;6.376;2023-07-20T02:32:08;101493.06;;;14.60;71.35
55456;BME280;63021;52.836;6.376;2023-07-20T02:34:35;101499.72;;;14.56;71.52
55456;BME280;63021;52.836;6.376;2023-07-20T02:37:00;101493.84;;;14.52;71.23
55456;BME280;63021;52.836;6.376;2023-07-20T02:39:29;101496.00;;;14.49;71.46
55456;BME280;63021;52.836;6.376;2023-07-20T02:41:55;101500.69;;;14.47;71.90
55456;BME280;63021;52.836;6.376;2023-07-20T02:44:20;101491.94;;;14.45;71.92
55456;BME280;63021;52.836;6.376;2023-07-20T02:46:46;101495.09;;;14.40;71.75
55456;BME280;63021;52.836;6.376;2023-07-20T02:49:11;101491.88;;;14.36;71.88
55456;BME280;63021;52.836;6.376;2023-07-20T02:51:37;101489.34;;;14.35;71.71
55456;BME280;63021;52.836;6.376;2023-07-20T02:54:02;101495.88;;;14.32;71.88
55456;BME280;63021;52.836;6.376;2023-07-20T02:56:28;101493.66;;;14.28;71.89
55456;BME280;63021;52.836;6.376;2023-07-20T02:58:54;101499.16;;;14.26;71.58
55456;BME280;63021;52.836;6.376;2023-07-20T03:01:19;101495.97;;;14.23;72.02
55456;BME280;63021;52.836;6.376;2023-07-20T03:03:45;101501.63;;;14.19;72.01
55456;BME280;63021;52.836;6.376;2023-07-20T03:06:14;101517.88;;;14.18;72.14
55456;BME280;63021;52.836;6.376;2023-07-20T03:08:41;101504.59;;;14.16;71.82
55456;BME280;63021;52.836;6.376;2023-07-20T03:11:07;101503.09;;;14.14;71.88
55456;BME280;63021;52.836;6.376;2023-07-20T03:13:33;101502.38;;;14.12;72.07
55456;BME280;63021;52.836;6.376;2023-07-20T03:15:58;101507.22;;;14.08;71.87
55456;BME280;63021;52.836;6.376;2023-07-20T03:18:23;101508.38;;;14.06;72.34
55456;BME280;63021;52.836;6.376;2023-07-20T03:20:49;101514.03;;;14.02;71.95
55456;BME280;63021;52.836;6.376;2023-07-20T03:23:14;101507.97;;;14.00;72.29
55456;BME280;63021;52.836;6.376;2023-07-20T03:25:40;101507.31;;;13.98;72.31
55456;BME280;63021;52.836;6.376;2023-07-20T03:28:06;101525.22;;;13.98;71.92
55456;BME280;63021;52.836;6.376;2023-07-20T03:30:32;101536.19;;;13.95;72.17
55456;BME280;63021;52.836;6.376;2023-07-20T03:32:58;101519.47;;;13.93;72.13
55456;BME280;63021;52.836;6.376;2023-07-20T03:35:23;101525.94;;;13.90;71.98
55456;BME280;63021;52.836;6.376;2023-07-20T03:37:49;101537.94;;;13.86;71.84
55456;BME280;63021;52.836;6.376;2023-07-20T03:40:14;101528.25;;;13.85;71.83
55456;BME280;63021;52.836;6.376;2023-07-20T03:42:41;101527.56;;;13.83;71.89
55456;BME280;63021;52.836;6.376;2023-07-20T03:45:07;101525.19;;;13.80;72.18
55456;BME280;63021;52.836;6.376;2023-07-20T03:47:32;101520.97;;;13.77;71.86
55456;BME280;63021;52.836;6.376;2023-07-20T03:49:58;101513.25;;;13.74;71.68
55456;BME280;63021;52.836;6.376;2023-07-20T03:52:23;101519.75;;;13.72;72.04
55456;BME280;63021;52.836;6.376;2023-07-20T03:54:49;101533.28;;;13.70;71.81
55456;BME280;63021;52.836;6.376;2023-07-20T03:57:16;101521.03;;;13.67;71.95
55456;BME280;63021;52.836;6.376;2023-07-20T03:59:45;101522.03;;;13.66;71.82
55456;BME280;63021;52.836;6.376;2023-07-20T04:02:10;101521.34;;;13.64;72.05
55456;BME280;63021;52.836;6.376;2023-07-20T04:04:36;101519.66;;;13.63;71.84
55456;BME280;63021;52.836;6.376;2023-07-20T04:07:01;101530.50;;;13.62;71.86
55456;BME280;63021;52.836;6.376;2023-07-20T04:09:26;101521.78;;;13.60;72.03
55456;BME280;63021;52.836;6.376;2023-07-20T04:11:52;101520.25;;;13.57;72.05
55456;BME280;63021;52.836;6.376;2023-07-20T04:14:17;101520.56;;;13.54;71.94
55456;BME280;63021;52.836;6.376;2023-07-20T04:16:42;101518.03;;;13.52;72.48
55456;BME280;63021;52.836;6.376;2023-07-20T04:19:08;101541.59;;;13.49;72.08
55456;BME280;63021;52.836;6.376;2023-07-20T04:21:39;101518.34;;;13.49;72.42
55456;BME280;63021;52.836;6.376;2023-07-20T04:24:05;101519.31;;;13.48;72.09
55456;BME280;63021;52.836;6.376;2023-07-20T04:26:30;101531.00;;;13.47;72.24
55456;BME280;63021;52.836;6.376;2023-07-20T04:28:56;101536.34;;;13.47;72.08
55456;BME280;63021;52.836;6.376;2023-07-20T04:31:21;101524.53;;;13.50;72.08
55456;BME280;63021;52.836;6.376;2023-07-20T04:33:46;101524.66;;;13.48;71.94
55456;BME280;63021;52.836;6.376;2023-07-20T04:36:12;101530.88;;;13.49;72.36
55456;BME280;63021;52.836;6.376;2023-07-20T04:38:39;101531.72;;;13.49;72.19
55456;BME280;63021;52.836;6.376;2023-07-20T04:41:05;101545.25;;;13.48;72.17
55456;BME280;63021;52.836;6.376;2023-07-20T04:43:30;101538.19;;;13.47;72.10
55456;BME280;63021;52.836;6.376;2023-07-20T04:45:56;101545.91;;;13.50;72.80
55456;BME280;63021;52.836;6.376;2023-07-20T04:48:21;101548.91;;;13.47;72.37
55456;BME280;63021;52.836;6.376;2023-07-20T04:50:46;101560.31;;;13.49;72.32
55456;BME280;63021;52.836;6.376;2023-07-20T04:53:12;101547.59;;;13.51;72.64
55456;BME280;63021;52.836;6.376;2023-07-20T04:55:38;101551.81;;;13.54;72.70
55456;BME280;63021;52.836;6.376;2023-07-20T04:58:05;101539.59;;;13.51;72.44
55456;BME280;63021;52.836;6.376;2023-07-20T05:00:32;101550.69;;;13.56;72.61
55456;BME280;63021;52.836;6.376;2023-07-20T05:02:58;101546.19;;;13.57;72.62
55456;BME280;63021;52.836;6.376;2023-07-20T05:05:23;101549.38;;;13.60;72.61
55456;BME280;63021;52.836;6.376;2023-07-20T05:07:49;101569.66;;;13.63;73.03
55456;BME280;63021;52.836;6.376;2023-07-20T05:10:14;101557.81;;;13.65;72.56
55456;BME280;63021;52.836;6.376;2023-07-20T05:12:39;101557.66;;;13.67;72.86
55456;BME280;63021;52.836;6.376;2023-07-20T05:15:05;101557.50;;;13.68;72.74
55456;BME280;63021;52.836;6.376;2023-07-20T05:17:31;101559.19;;;13.69;72.44
55456;BME280;63021;52.836;6.376;2023-07-20T05:19:56;101556.81;;;13.66;72.29
55456;BME280;63021;52.836;6.376;2023-07-20T05:22:21;101551.47;;;13.66;72.36
55456;BME280;63021;52.836;6.376;2023-07-20T05:24:47;101568.34;;;13.67;72.80
55456;BME280;63021;52.836;6.376;2023-07-20T05:27:12;101568.91;;;13.71;72.89
55456;BME280;63021;52.836;6.376;2023-07-20T05:29:42;101559.72;;;13.73;72.59
55456;BME280;63021;52.836;6.376;2023-07-20T05:32:08;101567.59;;;13.75;73.13
55456;BME280;63021;52.836;6.376;2023-07-20T05:34:35;101559.97;;;13.80;72.97
55456;BME280;63021;52.836;6.376;2023-07-20T05:37:00;101555.19;;;13.83;72.58
55456;BME280;63021;52.836;6.376;2023-07-20T05:39:25;101563.72;;;13.87;72.70
55456;BME280;63021;52.836;6.376;2023-07-20T05:41:53;101559.75;;;13.91;73.05
55456;BME280;63021;52.836;6.376;2023-07-20T05:44:18;101581.53;;;13.96;73.04
55456;BME280;63021;52.836;6.376;2023-07-20T05:46:44;101567.88;;;13.99;72.81
55456;BME280;63021;52.836;6.376;2023-07-20T05:49:09;101578.13;;;14.04;73.00
55456;BME280;63021;52.836;6.376;2023-07-20T05:51:35;101559.75;;;14.09;72.66
55456;BME280;63021;52.836;6.376;2023-07-20T05:54:01;101556.50;;;14.15;72.85
55456;BME280;63021;52.836;6.376;2023-07-20T05:56:26;101551.50;;;14.20;72.90
55456;BME280;63021;52.836;6.376;2023-07-20T05:58:52;101550.03;;;14.26;72.79
55456;BME280;63021;52.836;6.376;2023-07-20T06:01:17;101547.59;;;14.33;72.37
55456;BME280;63021;52.836;6.376;2023-07-20T06:03:44;101579.81;;;14.41;72.54
55456;BME280;63021;52.836;6.376;2023-07-20T06:06:09;101561.28;;;14.48;72.07
55456;BME280;63021;52.836;6.376;2023-07-20T06:08:37;101564.34;;;14.53;72.46
55456;BME280;63021;52.836;6.376;2023-07-20T06:11:02;101564.41;;;14.61;72.48
55456;BME280;63021;52.836;6.376;2023-07-20T06:13:28;101569.16;;;14.67;72.25
55456;BME280;63021;52.836;6.376;2023-07-20T06:15:53;101569.25;;;14.76;72.02
55456;BME280;63021;52.836;6.376;2023-07-20T06:18:18;101561.38;;;14.82;72.14
55456;BME280;63021;52.836;6.376;2023-07-20T06:20:52;101558.78;;;14.90;71.62
55456;BME280;63021;52.836;6.376;2023-07-20T06:23:19;101563.31;;;14.98;71.41
55456;BME280;63021;52.836;6.376;2023-07-20T06:25:44;101562.88;;;15.03;70.88
55456;BME280;63021;52.836;6.376;2023-07-20T06:28:10;101584.19;;;15.13;70.96
55456;BME280;63021;52.836;6.376;2023-07-20T06:30:35;101569.47;;;15.17;70.88
55456;BME280;63021;52.836;6.376;2023-07-20T06:33:01;101576.03;;;15.22;70.57
55456;BME280;63021;52.836;6.376;2023-07-20T06:35:26;101576.91;;;15.31;70.63
55456;BME280;63021;52.836;6.376;2023-07-20T06:37:52;101584.03;;;15.40;70.32
55456;BME280;63021;52.836;6.376;2023-07-20T06:40:17;101579.84;;;15.46;70.07
55456;BME280;63021;52.836;6.376;2023-07-20T06:42:43;101584.56;;;15.52;69.55
55456;BME280;63021;52.836;6.376;2023-07-20T06:45:09;101581.22;;;15.58;69.51
55456;BME280;63021;52.836;6.376;2023-07-20T06:47:35;101578.91;;;15.64;69.40
55456;BME280;63021;52.836;6.376;2023-07-20T06:50:00;101579.13;;;15.70;69.13
55456;BME280;63021;52.836;6.376;2023-07-20T06:52:26;101589.19;;;15.76;68.96
55456;BME280;63021;52.836;6.376;2023-07-20T06:54:51;101580.50;;;15.83;68.22
55456;BME280;63021;52.836;6.376;2023-07-20T06:57:16;101609.53;;;15.87;67.97
55456;BME280;63021;52.836;6.376;2023-07-20T06:59:42;101602.69;;;15.93;67.82
55456;BME280;63021;52.836;6.376;2023-07-20T07:02:08;101592.97;;;16.00;68.03
55456;BME280;63021;52.836;6.376;2023-07-20T07:04:33;101607.25;;;16.09;67.65
55456;BME280;63021;52.836;6.376;2023-07-20T07:06:59;101592.19;;;16.16;67.13
55456;BME280;63021;52.836;6.376;2023-07-20T07:09:25;101587.97;;;16.22;67.14
55456;BME280;63021;52.836;6.376;2023-07-20T07:11:50;101588.84;;;16.31;66.44
55456;BME280;63021;52.836;6.376;2023-07-20T07:14:16;101592.53;;;16.38;66.38
55456;BME280;63021;52.836;6.376;2023-07-20T07:16:41;101586.31;;;16.45;66.54
55456;BME280;63021;52.836;6.376;2023-07-20T07:19:07;101589.34;;;16.51;66.13
55456;BME280;63021;52.836;6.376;2023-07-20T07:21:33;101589.66;;;16.56;65.46
55456;BME280;63021;52.836;6.376;2023-07-20T07:23:59;101589.50;;;16.57;64.59
55456;BME280;63021;52.836;6.376;2023-07-20T07:26:25;101592.72;;;16.61;64.42
55456;BME280;63021;52.836;6.376;2023-07-20T07:28:50;101602.25;;;16.63;64.52
55456;BME280;63021;52.836;6.376;2023-07-20T07:31:16;101605.47;;;16.67;64.05
55456;BME280;63021;52.836;6.376;2023-07-20T07:33:41;101600.91;;;16.68;63.26
55456;BME280;63021;52.836;6.376;2023-07-20T07:36:07;101605.97;;;16.71;62.98
55456;BME280;63021;52.836;6.376;2023-07-20T07:38:32;101597.22;;;16.77;63.04
55456;BME280;63021;52.836;6.376;2023-07-20T07:40:59;101594.19;;;16.80;62.90
55456;BME280;63021;52.836;6.376;2023-07-20T07:43:24;101594.38;;;16.87;62.60
55456;BME280;63021;52.836;6.376;2023-07-20T07:45:49;101616.41;;;16.90;62.53
55456;BME280;63021;52.836;6.376;2023-07-20T07:48:15;101618.56;;;16.95;62.27
55456;BME280;63021;52.836;6.376;2023-07-20T07:50:40;101598.22;;;17.01;62.06
55456;BME280;63021;52.836;6.376;2023-07-20T07:53:07;101599.03;;;17.09;62.67
55456;BME280;63021;52.836;6.376;2023-07-20T07:55:33;101601.72;;;17.18;62.57
55456;BME280;63021;52.836;6.376;2023-07-20T07:58:00;101613.66;;;17.23;61.87
55456;BME280;63021;52.836;6.376;2023-07-20T08:00:25;101603.41;;;17.27;61.69
55456;BME280;63021;52.836;6.376;2023-07-20T08:02:51;101623.53;;;17.31;60.90
55456;BME280;63021;52.836;6.376;2023-07-20T08:05:16;101609.41;;;17.37;60.25
55456;BME280;63021;52.836;6.376;2023-07-20T08:07:42;101597.28;;;17.41;59.83
55456;BME280;63021;52.836;6.376;2023-07-20T08:10:08;101596.09;;;17.44;59.51
55456;BME280;63021;52.836;6.376;2023-07-20T08:12:34;101608.34;;;17.46;59.18
55456;BME280;63021;52.836;6.376;2023-07-20T08:14:59;101606.53;;;17.47;58.65
55456;BME280;63021;52.836;6.376;2023-07-20T08:17:25;101607.34;;;17.47;59.06
55456;BME280;63021;52.836;6.376;2023-07-20T08:19:50;101610.53;;;17.51;59.01
55456;BME280;63021;52.836;6.376;2023-07-20T08:22:16;101607.00;;;17.51;59.32
55456;BME280;63021;52.836;6.376;2023-07-20T08:24:42;101605.81;;;17.53;58.51
55456;BME280;63021;52.836;6.376;2023-07-20T08:27:08;101605.66;;;17.55;58.50
55456;BME280;63021;52.836;6.376;2023-07-20T08:29:35;101617.06;;;17.57;58.64
55456;BME280;63021;52.836;6.376;2023-07-20T08:32:01;101607.44;;;17.62;58.96
55456;BME280;63021;52.836;6.376;2023-07-20T08:34:26;101628.13;;;17.70;59.30
55456;BME280;63021;52.836;6.376;2023-07-20T08:36:52;101614.63;;;17.78;59.11
55456;BME280;63021;52.836;6.376;2023-07-20T08:39:17;101619.69;;;17.81;58.17
55456;BME280;63021;52.836;6.376;2023-07-20T08:41:43;101612.91;;;17.86;57.90
55456;BME280;63021;52.836;6.376;2023-07-20T08:44:10;101605.16;;;17.91;58.06
55456;BME280;63021;52.836;6.376;2023-07-20T08:46:37;101608.84;;;17.98;57.40
55456;BME280;63021;52.836;6.376;2023-07-20T08:49:03;101604.28;;;17.98;57.02
55456;BME280;63021;52.836;6.376;2023-07-20T08:51:30;101618.06;;;18.04;56.77
55456;BME280;63021;52.836;6.376;2023-07-20T08:53:55;101606.09;;;18.06;56.63
55456;BME280;63021;52.836;6.376;2023-07-20T08:56:23;101620.03;;;18.10;56.37
55456;BME280;63021;52.836;6.376;2023-07-20T08:58:52;101607.41;;;18.10;56.09
55456;BME280;63021;52.836;6.376;2023-07-20T09:01:19;101631.84;;;18.09;55.36
55456;BME280;63021;52.836;6.376;2023-07-20T09:03:45;101634.69;;;18.07;54.94
55456;BME280;63021;52.836;6.376;2023-07-20T09:06:12;101615.19;;;18.05;54.45
55456;BME280;63021;52.836;6.376;2023-07-20T09:08:39;101607.75;;;18.07;54.57
55456;BME280;63021;52.836;6.376;2023-07-20T09:11:04;101600.16;;;18.11;54.71
55456;BME280;63021;52.836;6.376;2023-07-20T09:13:32;101603.81;;;18.18;55.29
55456;BME280;63021;52.836;6.376;2023-07-20T09:15:58;101599.56;;;18.24;54.57
55456;BME280;63021;52.836;6.376;2023-07-20T09:18:27;101610.41;;;18.39;54.63
55456;BME280;63021;52.836;6.376;2023-07-20T09:20:58;101610.84;;;18.50;54.39
55456;BME280;63021;52.836;6.376;2023-07-20T09:23:35;101609.94;;;18.58;53.67
55456;BME280;63021;52.836;6.376;2023-07-20T09:26:12;101607.34;;;18.65;53.47
55456;BME280;63021;52.836;6.376;2023-07-20T09:28:54;101604.56;;;18.73;53.40
55456;BME280;63021;52.836;6.376;2023-07-20T09:31:22;101609.63;;;18.76;52.66
55456;BME280;63021;52.836;6.376;2023-07-20T09:33:48;101608.56;;;18.77;50.86
55456;BME280;63021;52.836;6.376;2023-07-20T09:36:14;101610.25;;;18.78;50.53
55456;BME280;63021;52.836;6.376;2023-07-20T09:38:43;101607.88;;;18.83;50.61
55456;BME280;63021;52.836;6.376;2023-07-20T09:41:13;101612.91;;;18.86;50.34
55456;BME280;63021;52.836;6.376;2023-07-20T09:43:40;101609.34;;;18.86;49.35
55456;BME280;63021;52.836;6.376;2023-07-20T09:46:06;101600.41;;;18.85;48.84
55456;BME280;63021;52.836;6.376;2023-07-20T09:48:32;101604.28;;;18.91;49.93
55456;BME280;63021;52.836;6.376;2023-07-20T09:50:57;101608.09;;;18.97;49.71
55456;BME280;63021;52.836;6.376;2023-07-20T09:53:25;101601.97;;;19.03;48.95
55456;BME280;63021;52.836;6.376;2023-07-20T09:55:52;101610.06;;;19.03;48.53
55456;BME280;63021;52.836;6.376;2023-07-20T09:58:18;101601.59;;;19.06;47.90
55456;BME280;63021;52.836;6.376;2023-07-20T10:00:45;101598.50;;;19.09;47.69
55456;BME280;63021;52.836;6.376;2023-07-20T10:03:16;101599.63;;;19.15;47.21
55456;BME280;63021;52.836;6.376;2023-07-20T10:05:47;101603.44;;;19.20;47.09
55456;BME280;63021;52.836;6.376;2023-07-20T10:08:15;101600.38;;;19.24;46.90
55456;BME280;63021;52.836;6.376;2023-07-20T10:10:42;101605.25;;;19.28;47.08
55456;BME280;63021;52.836;6.376;2023-07-20T10:13:17;101608.19;;;19.33;46.89
55456;BME280;63021;52.836;6.376;2023-07-20T10:15:46;101611.63;;;19.42;47.26
55456;BME280;63021;52.836;6.376;2023-07-20T10:19:13;101615.06;;;19.51;47.31
55456;BME280;63021;52.836;6.376;2023-07-20T10:21:33;101605.56;;;19.55;47.54
55456;BME280;63021;52.836;6.376;2023-07-20T10:24:01;101614.59;;;19.62;47.65
55456;BME280;63021;52.836;6.376;2023-07-20T10:26:26;101605.78;;;19.68;47.79
55456;BME280;63021;52.836;6.376;2023-07-20T10:28:52;101610.78;;;19.71;47.39
55456;BME280;63021;52.836;6.376;2023-07-20T10:31:18;101614.13;;;19.73;48.13
55456;BME280;63021;52.836;6.376;2023-07-20T10:33:45;101603.97;;;19.76;46.95
55456;BME280;63021;52.836;6.376;2023-07-20T10:36:11;101593.19;;;19.76;46.77
55456;BME280;63021;52.836;6.376;2023-07-20T10:41:19;101592.63;;;19.80;45.62
55456;BME280;63021;52.836;6.376;2023-07-20T10:43:45;101586.03;;;19.83;46.03
55456;BME280;63021;52.836;6.376;2023-07-20T10:46:12;101593.06;;;19.84;46.66
55456;BME280;63021;52.836;6.376;2023-07-20T10:49:01;101587.56;;;19.92;45.69
55456;BME280;63021;52.836;6.376;2023-07-20T10:51:28;101596.78;;;19.98;45.65
55456;BME280;63021;52.836;6.376;2023-07-20T10:53:57;101591.25;;;20.06;45.22
55456;BME280;63021;52.836;6.376;2023-07-20T10:56:26;101580.50;;;20.13;45.66
55456;BME280;63021;52.836;6.376;2023-07-20T10:59:00;101588.47;;;20.21;45.55
55456;BME280;63021;52.836;6.376;2023-07-20T11:01:36;101581.47;;;20.27;45.69
55456;BME280;63021;52.836;6.376;2023-07-20T11:04:08;101589.38;;;20.28;45.19
55456;BME280;63021;52.836;6.376;2023-07-20T11:06:33;101585.19;;;20.25;45.26
55456;BME280;63021;52.836;6.376;2023-07-20T11:09:11;101586.06;;;20.26;46.04
55456;BME280;63021;52.836;6.376;2023-07-20T11:11:40;101588.28;;;20.22;46.09
55456;BME280;63021;52.836;6.376;2023-07-20T11:14:07;101585.78;;;20.21;44.83
55456;BME280;63021;52.836;6.376;2023-07-20T11:16:40;101584.97;;;20.20;45.22
55456;BME280;63021;52.836;6.376;2023-07-20T11:19:17;101584.38;;;20.25;45.56
55456;BME280;63021;52.836;6.376;2023-07-20T11:21:45;101584.06;;;20.35;45.93
55456;BME280;63021;52.836;6.376;2023-07-20T11:24:14;101577.66;;;20.42;44.43
55456;BME280;63021;52.836;6.376;2023-07-20T11:26:44;101580.63;;;20.48;44.27
55456;BME280;63021;52.836;6.376;2023-07-20T11:29:09;101583.78;;;20.51;44.22
55456;BME280;63021;52.836;6.376;2023-07-20T11:31:42;101574.44;;;20.54;44.34
55456;BME280;63021;52.836;6.376;2023-07-20T11:34:11;101578.81;;;20.55;44.17
55456;BME280;63021;52.836;6.376;2023-07-20T11:36:44;101578.63;;;20.56;44.22
55456;BME280;63021;52.836;6.376;2023-07-20T11:39:10;101577.41;;;20.59;44.08
55456;BME280;63021;52.836;6.376;2023-07-20T11:41:36;101577.25;;;20.67;44.18
55456;BME280;63021;52.836;6.376;2023-07-20T11:44:04;101578.34;;;20.73;43.80
55456;BME280;63021;52.836;6.376;2023-07-20T11:46:31;101573.59;;;20.75;44.43
55456;BME280;63021;52.836;6.376;2023-07-20T11:48:58;101574.03;;;20.79;43.82
55456;BME280;63021;52.836;6.376;2023-07-20T11:51:26;101571.56;;;20.84;43.56
55456;BME280;63021;52.836;6.376;2023-07-20T11:53:51;101575.56;;;20.88;43.79
55456;BME280;63021;52.836;6.376;2023-07-20T11:56:17;101572.25;;;20.92;44.19
55456;BME280;63021;52.836;6.376;2023-07-20T11:58:46;101570.00;;;20.96;44.19
55456;BME280;63021;52.836;6.376;2023-07-20T12:01:13;101566.44;;;20.96;44.04
55456;BME280;63021;52.836;6.376;2023-07-20T12:03:39;101570.44;;;21.00;44.96
55456;BME280;63021;52.836;6.376;2023-07-20T12:06:08;101568.81;;;21.05;45.68
55456;BME280;63021;52.836;6.376;2023-07-20T12:08:34;101561.56;;;21.13;45.59
55456;BME280;63021;52.836;6.376;2023-07-20T12:10:59;101563.25;;;21.14;44.81
55456;BME280;63021;52.836;6.376;2023-07-20T12:13:45;101569.72;;;21.19;44.97
55456;BME280;63021;52.836;6.376;2023-07-20T12:16:15;101569.94;;;21.18;44.70
55456;BME280;63021;52.836;6.376;2023-07-20T12:18:42;101561.59;;;21.19;45.36
55456;BME280;63021;52.836;6.376;2023-07-20T12:21:08;101560.94;;;21.17;45.27
55456;BME280;63021;52.836;6.376;2023-07-20T12:23:38;101553.06;;;21.22;45.94
55456;BME280;63021;52.836;6.376;2023-07-20T12:26:09;101548.47;;;21.23;46.13
55456;BME280;63021;52.836;6.376;2023-07-20T12:28:41;101555.16;;;21.27;46.13
55456;BME280;63021;52.836;6.376;2023-07-20T12:31:10;101552.47;;;21.27;46.27
55456;BME280;63021;52.836;6.376;2023-07-20T12:33:38;101559.78;;;21.33;46.86
55456;BME280;63021;52.836;6.376;2023-07-20T12:36:04;101551.91;;;21.38;45.96
55456;BME280;63021;52.836;6.376;2023-07-20T12:38:30;101555.47;;;21.45;47.33
55456;BME280;63021;52.836;6.376;2023-07-20T12:41:03;101544.50;;;21.60;47.57
55456;BME280;63021;52.836;6.376;2023-07-20T12:43:29;101548.31;;;21.73;47.90
55456;BME280;63021;52.836;6.376;2023-07-20T12:45:56;101547.28;;;21.80;47.45
55456;BME280;63021;52.836;6.376;2023-07-20T12:48:21;101543.13;;;21.78;46.53
55456;BME280;63021;52.836;6.376;2023-07-20T12:50:47;101543.28;;;21.70;45.86
55456;BME280;63021;52.836;6.376;2023-07-20T12:53:14;101543.25;;;21.63;45.76
55456;BME280;63021;52.836;6.376;2023-07-20T12:55:39;101549.91;;;21.60;44.95
55456;BME280;63021;52.836;6.376;2023-07-20T12:58:07;101535.50;;;21.53;44.83
55456;BME280;63021;52.836;6.376;2023-07-20T13:00:33;101546.56;;;21.52;43.77